Kitanomaru — JD2835 — position and weather

sailwx.info

Track history (hours):
 
Tides and Currents Weather Stations Pressure Air Temp Water Temp Dewpoint Dewpoint Depression Visibility Wind Speed Wind Dir Waves Ship Positions

Kitanomaru

Last reported at 2014-Jul-24 14:33 UTC. Time now 2014-Jul-24 15:20 UTC.
Position N 35°36' E 140°07'.

Length 39 m; draft 4 m.

Type: Tug. MMSI: 431000773.

Date/timePositionNaut miles runAvg speedWind from/ knotsBaromVisibWave heightAir tempDewpointWater temp
2014-Jul-24 14:33N 35°36' E 140°07'0 0.0
2014-Jul-24 13:33N 35°36' E 140°07'0 0.0
2014-Jul-24 12:33N 35°36' E 140°07'0 0.0
2014-Jul-24 11:34N 35°36' E 140°07'0 0.0
2014-Jul-24 10:33N 35°36' E 140°07'0 0.0
2014-Jul-24 09:33N 35°36' E 140°07'0 0.0
2014-Jul-24 08:33N 35°36' E 140°07'0 0.0
2014-Jul-24 07:33N 35°36' E 140°07'0 0.0
2014-Jul-24 06:33N 35°36' E 140°07'0 0.0
2014-Jul-24 05:33N 35°36' E 140°07'0 0.0
2014-Jul-24 04:33N 35°36' E 140°07'0 0.0
2014-Jul-24 03:33N 35°36' E 140°07'0 0.0
2014-Jul-24 02:33N 35°36' E 140°07'3 3.2
2014-Jul-24 01:33N 35°34' E 140°04'6 5.7
2014-Jul-24 00:33N 35°29' E 140°00'3 2.6
2014-Jul-23 23:33N 35°31' E 140°02'6 6.1
2014-Jul-23 22:33N 35°36' E 140°07'0 0.0
2014-Jul-23 21:33N 35°36' E 140°07'0 0.0
2014-Jul-23 20:33N 35°36' E 140°07'0 0.0
2014-Jul-23 19:33N 35°36' E 140°07'0 0.0
2014-Jul-23 18:33N 35°36' E 140°07'0 0.0
2014-Jul-23 17:33N 35°36' E 140°07'0 0.0
2014-Jul-23 16:33N 35°36' E 140°07'0 0.0
2014-Jul-23 15:33N 35°36' E 140°07'0 0.0
2014-Jul-23 14:34N 35°36' E 140°07'0 0.0
2014-Jul-23 13:33N 35°36' E 140°07'0 0.0
2014-Jul-23 12:33N 35°36' E 140°07'0 0.0
2014-Jul-23 11:34N 35°36' E 140°07'0 0.0
2014-Jul-23 10:33N 35°36' E 140°07'0 0.0
2014-Jul-23 09:33N 35°36' E 140°07'3 2.6
2014-Jul-23 08:33N 35°33' E 140°06'3 2.6
2014-Jul-23 07:33N 35°33' E 140°03'1 0.6
2014-Jul-23 06:33N 35°32' E 140°03'1 0.5
2014-Jul-23 05:33N 35°32' E 140°02'0 0.0
2014-Jul-23 04:33N 35°32' E 140°02'0 0.0
2014-Jul-23 03:33N 35°32' E 140°02'1 0.9
2014-Jul-23 02:33N 35°31' E 140°02'1 1.0
2014-Jul-23 01:33N 35°31' E 140°01'1 1.0
2014-Jul-23 00:33N 35°31' E 140°02'6 6.1
2014-Jul-22 23:32N 35°36' E 140°07'0 0.0
2014-Jul-22 22:33N 35°36' E 140°07'0 0.0
2014-Jul-22 21:33N 35°36' E 140°07'0 0.0
2014-Jul-22 20:33N 35°36' E 140°07'0 0.0
2014-Jul-22 19:33N 35°36' E 140°07'0 0.0
2014-Jul-22 18:33N 35°36' E 140°07'0 0.0
2014-Jul-22 17:34N 35°36' E 140°07'0 0.0
2014-Jul-22 16:33N 35°36' E 140°07'0 0.0
2014-Jul-22 15:33N 35°36' E 140°07'0 0.0
2014-Jul-22 14:33N 35°36' E 140°07'0 0.0
2014-Jul-22 13:33N 35°36' E 140°07'0 0.0
2014-Jul-22 12:34N 35°36' E 140°07'0 0.0
2014-Jul-22 11:33N 35°36' E 140°07'0 0.0
2014-Jul-22 10:33N 35°36' E 140°07'0 0.0
2014-Jul-22 09:33N 35°36' E 140°07'0 0.0
2014-Jul-22 08:33N 35°36' E 140°07'0 0.0
2014-Jul-22 07:33N 35°36' E 140°07'1 0.9
2014-Jul-22 06:33N 35°35' E 140°06'2 1.8
2014-Jul-22 05:33N 35°35' E 140°04'7 7.3
2014-Jul-22 04:34N 35°32' E 139°56'7 7.2
2014-Jul-22 03:33N 35°35' E 140°04'2 2.2
2014-Jul-22 02:33N 35°36' E 140°07'0 0.0
2014-Jul-22 01:33N 35°36' E 140°07'0 0.0
2014-Jul-22 00:33N 35°36' E 140°07'0 0.0
2014-Jul-21 23:33N 35°36' E 140°07'1 0.9
2014-Jul-21 22:34N 35°36' E 140°06'5 4.6
2014-Jul-21 21:33N 35°34' E 140°01'1 0.8
2014-Jul-21 20:33N 35°33' E 140°00'313.1
2014-Jul-21 20:18N 35°35' E 140°03'3 4.0
2014-Jul-21 19:33N 35°36' E 140°07'0 0.0
2014-Jul-21 18:34N 35°36' E 140°07'0 0.0
2014-Jul-21 17:34N 35°36' E 140°07'0 0.0
2014-Jul-21 16:33N 35°36' E 140°07'0 0.0
2014-Jul-21 15:33N 35°36' E 140°07'0 0.0
2014-Jul-21 14:33N 35°36' E 140°07'0 0.0
2014-Jul-21 13:33N 35°36' E 140°07'0 0.0
2014-Jul-21 12:33N 35°36' E 140°07'0 0.0
2014-Jul-21 11:34N 35°36' E 140°07'0 0.0
2014-Jul-21 10:33N 35°36' E 140°07'0 0.0
2014-Jul-21 09:33N 35°36' E 140°07'0 0.0
2014-Jul-21 08:33N 35°36' E 140°07'0 0.0
2014-Jul-21 07:33N 35°36' E 140°07'0 0.0
2014-Jul-21 06:33N 35°36' E 140°07'0 0.0
2014-Jul-21 05:33N 35°36' E 140°07'0 0.0
2014-Jul-21 04:33N 35°36' E 140°07'0 0.0
2014-Jul-21 03:34N 35°36' E 140°07'0 0.0
2014-Jul-21 02:33N 35°36' E 140°07'0 0.0
2014-Jul-21 01:33N 35°36' E 140°07'0 0.0
2014-Jul-21 00:33N 35°36' E 140°07'0 0.0
2014-Jul-20 23:33N 35°36' E 140°07'0 0.0
2014-Jul-20 22:33N 35°36' E 140°07'0 0.0
2014-Jul-20 21:33N 35°36' E 140°07'0 0.0
2014-Jul-20 20:33N 35°36' E 140°07'0 0.0
2014-Jul-20 19:33N 35°36' E 140°07'0 0.0
2014-Jul-20 18:33N 35°36' E 140°07'0 0.0
2014-Jul-20 17:33N 35°36' E 140°07'0 0.0
2014-Jul-20 16:33N 35°36' E 140°07'0 0.0
2014-Jul-20 15:33N 35°36' E 140°07'0 0.0
2014-Jul-20 14:33N 35°36' E 140°07'0 0.0
2014-Jul-20 13:33N 35°36' E 140°07'0 0.0
2014-Jul-20 12:33N 35°36' E 140°07'0 0.0
2014-Jul-20 11:33N 35°36' E 140°07'0 0.0
2014-Jul-20 10:33N 35°36' E 140°07'0 0.0
2014-Jul-20 09:33N 35°36' E 140°07'0 0.0
2014-Jul-20 08:34N 35°36' E 140°07'0 0.0
2014-Jul-20 07:33N 35°36' E 140°07'0 0.0
2014-Jul-20 06:34N 35°36' E 140°07'0 0.0
2014-Jul-20 05:33N 35°36' E 140°07'0 0.0
2014-Jul-20 04:33N 35°36' E 140°07'0 0.0
2014-Jul-20 03:33N 35°36' E 140°07'3 3.2
2014-Jul-20 02:33N 35°34' E 140°04'7 7.3
2014-Jul-20 01:33N 35°28' E 139°58'1 0.7
2014-Jul-20 00:33N 35°29' E 139°58'2 2.2
2014-Jul-19 23:33N 35°29' E 139°55'1010.3
2014-Jul-19 22:33N 35°35' E 140°05'1 1.5
2014-Jul-19 21:33N 35°36' E 140°07'0 0.0
2014-Jul-19 20:33N 35°36' E 140°07'0 0.0
2014-Jul-19 19:33N 35°36' E 140°07'0 0.0
2014-Jul-19 18:34N 35°36' E 140°07'0 0.0
2014-Jul-19 17:33N 35°36' E 140°07'0 0.0
2014-Jul-19 16:33N 35°36' E 140°07'0 0.0
2014-Jul-19 15:34N 35°36' E 140°07'0 0.0
2014-Jul-19 14:33N 35°36' E 140°07'0 0.0
2014-Jul-19 13:33N 35°36' E 140°07'0 0.0
2014-Jul-19 12:33N 35°36' E 140°07'0 0.0
2014-Jul-19 11:33N 35°36' E 140°07'0 0.0
2014-Jul-19 10:33N 35°36' E 140°07'0 0.0
2014-Jul-19 09:33N 35°36' E 140°07'0 0.0
2014-Jul-19 08:33N 35°36' E 140°07'0 0.0
2014-Jul-19 07:33N 35°36' E 140°07'1 1.0
2014-Jul-19 06:33N 35°35' E 140°07'1 1.0
2014-Jul-19 05:33N 35°36' E 140°07'0 0.0
2014-Jul-19 04:33N 35°36' E 140°07'0 0.0
2014-Jul-19 03:33N 35°36' E 140°07'0 0.0
2014-Jul-19 02:33N 35°36' E 140°07'0 0.0
2014-Jul-19 01:33N 35°36' E 140°07'1 1.2
2014-Jul-19 00:33N 35°35' E 140°05'9 8.9
2014-Jul-18 23:33N 35°29' E 139°58'3 3.1
2014-Jul-18 22:33N 35°31' E 140°01'7 6.8
2014-Jul-18 21:34N 35°36' E 140°07'0 0.0
2014-Jul-18 20:33N 35°36' E 140°07'0 0.0
2014-Jul-18 19:34N 35°36' E 140°07'0 0.0
2014-Jul-18 18:33N 35°36' E 140°07'0 0.0
2014-Jul-18 17:33N 35°36' E 140°07'0 0.0
2014-Jul-18 16:33N 35°36' E 140°07'0 0.0
2014-Jul-18 15:33N 35°36' E 140°07'0 0.0
2014-Jul-18 14:33N 35°36' E 140°07'0 0.0
2014-Jul-18 13:33N 35°36' E 140°07'0 0.0
2014-Jul-18 12:33N 35°36' E 140°07'0 0.0
2014-Jul-18 11:34N 35°36' E 140°07'0 0.0
2014-Jul-18 10:34N 35°36' E 140°07'0 0.0
2014-Jul-18 09:33N 35°36' E 140°07'8 8.3
2014-Jul-18 08:34N 35°30' E 139°59'2 2.1
2014-Jul-18 07:33N 35°28' E 139°58'2 1.9
2014-Jul-18 06:33N 35°30' E 139°56'1 1.2
2014-Jul-18 05:33N 35°29' E 139°55'0 0.0
2014-Jul-18 04:33N 35°29' E 139°55'3 2.9
2014-Jul-18 03:33N 35°30' E 139°58'8 8.1
2014-Jul-18 02:33N 35°36' E 140°05'1 1.4
2014-Jul-18 01:33N 35°35' E 140°06'1 0.5
2014-Jul-18 00:34N 35°36' E 140°07'4 3.6
2014-Jul-17 23:33N 35°32' E 140°05'2 1.6
2014-Jul-17 22:34N 35°33' E 140°04'5 5.3
2014-Jul-17 21:33N 35°31' E 139°58'9 8.7
2014-Jul-17 20:33N 35°36' E 140°07'0 0.0
2014-Jul-17 19:33N 35°36' E 140°07'0 0.0
2014-Jul-17 18:33N 35°36' E 140°07'0 0.0
2014-Jul-17 17:34N 35°36' E 140°07'0 0.0
2014-Jul-17 16:33N 35°36' E 140°07'0 0.0
2014-Jul-17 15:33N 35°36' E 140°07'0 0.0
2014-Jul-17 14:33N 35°36' E 140°07'0 0.0
2014-Jul-17 13:33N 35°36' E 140°07'0 0.0
2014-Jul-17 12:33N 35°36' E 140°07'0 0.0
2014-Jul-17 11:34N 35°36' E 140°07'0 0.0
2014-Jul-17 10:33N 35°36' E 140°07'7 7.3
2014-Jul-17 09:33N 35°30' E 140°02'1 0.7
2014-Jul-17 08:33N 35°30' E 140°01'0 0.0
2014-Jul-17 07:33N 35°30' E 140°01'1 0.6
2014-Jul-17 06:33N 35°30' E 140°02'1 0.8
2014-Jul-17 05:33N 35°31' E 140°01'0 0.0
2014-Jul-17 04:33N 35°31' E 140°01'0 0.0
2014-Jul-17 03:33N 35°31' E 140°01'0 0.0
2014-Jul-17 02:33N 35°31' E 140°01'6 6.0
2014-Jul-17 01:33N 35°36' E 140°05'1 1.1
2014-Jul-17 00:33N 35°35' E 140°04'4 4.4
2014-Jul-16 23:34N 35°31' E 140°02'1 1.2
2014-Jul-16 22:33N 35°31' E 140°01'3 3.2
2014-Jul-16 21:33N 35°34' E 140°03'3 3.2
2014-Jul-16 20:33N 35°35' E 140°06'1 0.6
2014-Jul-16 19:34N 35°36' E 140°07'0 0.0
2014-Jul-16 18:33N 35°36' E 140°07'0 0.0
2014-Jul-16 17:33N 35°36' E 140°07'0 0.0
2014-Jul-16 16:33N 35°36' E 140°07'0 0.0
2014-Jul-16 15:33N 35°36' E 140°07'0 0.0
2014-Jul-16 14:33N 35°36' E 140°07'0 0.0
2014-Jul-16 13:33N 35°36' E 140°07'0 0.0
2014-Jul-16 12:33N 35°36' E 140°07'0 0.0
2014-Jul-16 11:33N 35°36' E 140°07'0 0.0
2014-Jul-16 10:33N 35°36' E 140°07'3 3.1
2014-Jul-16 09:33N 35°35' E 140°03'7 7.1
2014-Jul-16 08:33N 35°31' E 139°56'0 0.0
2014-Jul-16 07:33N 35°31' E 139°56'2 1.7
2014-Jul-16 06:33N 35°30' E 139°54'6 6.1
2014-Jul-16 05:33N 35°33' E 140°01'6 5.8
2014-Jul-16 04:33N 35°36' E 140°07'0 0.0
2014-Jul-16 03:33N 35°36' E 140°07'0 0.0
2014-Jul-16 02:33N 35°36' E 140°07'0 0.0
2014-Jul-16 01:34N 35°36' E 140°07'0 0.0
2014-Jul-16 00:33N 35°36' E 140°07'0 0.3
2014-Jul-15 23:33N 35°35' E 140°07'2 1.8
2014-Jul-15 22:33N 35°35' E 140°05'0 0.3
2014-Jul-15 21:34N 35°35' E 140°04'1 1.0
2014-Jul-15 20:33N 35°36' E 140°05'2 1.7
2014-Jul-15 19:33N 35°36' E 140°07'0 0.0
2014-Jul-15 18:33N 35°36' E 140°07'0 0.0
2014-Jul-15 17:33N 35°36' E 140°07'0 0.0
2014-Jul-15 16:33N 35°36' E 140°07'0 0.0
2014-Jul-15 15:33N 35°36' E 140°07'0 0.0
2014-Jul-15 14:33N 35°36' E 140°07'0 0.0
2014-Jul-15 13:33N 35°36' E 140°07'0 0.0
2014-Jul-15 12:32N 35°36' E 140°07'0 0.0
2014-Jul-15 11:33N 35°36' E 140°07'1010.1
2014-Jul-15 10:33N 35°29' E 139°58'1 0.7
2014-Jul-15 09:33N 35°28' E 139°58'1 0.6
2014-Jul-15 08:33N 35°29' E 139°59'2 2.2
2014-Jul-15 07:33N 35°30' E 140°01'0 0.3
2014-Jul-15 06:33N 35°30' E 140°01'1 1.0
2014-Jul-15 05:34N 35°31' E 140°01'0 0.0
2014-Jul-15 04:33N 35°31' E 140°01'0 0.0
2014-Jul-15 03:33N 35°31' E 140°01'0 0.0
2014-Jul-15 02:33N 35°31' E 140°01'1 0.9
2014-Jul-15 01:34N 35°30' E 140°01'1 0.8
2014-Jul-15 00:33N 35°29' E 140°00'1 1.1
2014-Jul-14 23:33N 35°28' E 139°60'10 9.6
2014-Jul-14 22:33N 35°36' E 140°07'0 0.1
2014-Jul-14 21:34N 35°36' E 140°07'0 0.0
2014-Jul-14 20:33N 35°36' E 140°07'0 0.0
2014-Jul-14 19:34N 35°36' E 140°07'0 0.0
2014-Jul-14 18:33N 35°36' E 140°07'0 0.0
2014-Jul-14 17:33N 35°36' E 140°07'0 0.0
2014-Jul-14 16:33N 35°36' E 140°07'0 0.0
2014-Jul-14 15:33N 35°36' E 140°07'0 0.0
2014-Jul-14 14:33N 35°36' E 140°07'  
Track history (hours):
 
Tides and Currents Weather Stations Pressure Air Temp Water Temp Dewpoint Dewpoint Depression Visibility Wind Speed Wind Dir Waves Ship Positions

Kitanomaru

Last reported at 2014-Jul-24 14:33 UTC. Time now 2014-Jul-24 15:20 UTC.
Position N 35°36' E 140°07'.

Length 39 m; draft 4 m.

Type: Tug. MMSI: 431000773.

Date/timePositionNaut miles runAvg speedWind from/ knotsBaromVisibWave heightAir tempDewpointWater temp
2014-Jul-24 14:33N 35°36' E 140°07'0 0.0
2014-Jul-24 13:33N 35°36' E 140°07'0 0.0
2014-Jul-24 12:33N 35°36' E 140°07'0 0.0
2014-Jul-24 11:34N 35°36' E 140°07'0 0.0
2014-Jul-24 10:33N 35°36' E 140°07'0 0.0
2014-Jul-24 09:33N 35°36' E 140°07'0 0.0
2014-Jul-24 08:33N 35°36' E 140°07'0 0.0
2014-Jul-24 07:33N 35°36' E 140°07'0 0.0
2014-Jul-24 06:33N 35°36' E 140°07'0 0.0
2014-Jul-24 05:33N 35°36' E 140°07'0 0.0
2014-Jul-24 04:33N 35°36' E 140°07'0 0.0
2014-Jul-24 03:33N 35°36' E 140°07'0 0.0
2014-Jul-24 02:33N 35°36' E 140°07'3 3.2
2014-Jul-24 01:33N 35°34' E 140°04'6 5.7
2014-Jul-24 00:33N 35°29' E 140°00'3 2.6
2014-Jul-23 23:33N 35°31' E 140°02'6 6.1
2014-Jul-23 22:33N 35°36' E 140°07'0 0.0
2014-Jul-23 21:33N 35°36' E 140°07'0 0.0
2014-Jul-23 20:33N 35°36' E 140°07'0 0.0
2014-Jul-23 19:33N 35°36' E 140°07'0 0.0
2014-Jul-23 18:33N 35°36' E 140°07'0 0.0
2014-Jul-23 17:33N 35°36' E 140°07'0 0.0
2014-Jul-23 16:33N 35°36' E 140°07'0 0.0
2014-Jul-23 15:33N 35°36' E 140°07'0 0.0
2014-Jul-23 14:34N 35°36' E 140°07'0 0.0
2014-Jul-23 13:33N 35°36' E 140°07'0 0.0
2014-Jul-23 12:33N 35°36' E 140°07'0 0.0
2014-Jul-23 11:34N 35°36' E 140°07'0 0.0
2014-Jul-23 10:33N 35°36' E 140°07'0 0.0
2014-Jul-23 09:33N 35°36' E 140°07'3 2.6
2014-Jul-23 08:33N 35°33' E 140°06'3 2.6
2014-Jul-23 07:33N 35°33' E 140°03'1 0.6
2014-Jul-23 06:33N 35°32' E 140°03'1 0.5
2014-Jul-23 05:33N 35°32' E 140°02'0 0.0
2014-Jul-23 04:33N 35°32' E 140°02'0 0.0
2014-Jul-23 03:33N 35°32' E 140°02'1 0.9
2014-Jul-23 02:33N 35°31' E 140°02'1 1.0
2014-Jul-23 01:33N 35°31' E 140°01'1 1.0
2014-Jul-23 00:33N 35°31' E 140°02'6 6.1
2014-Jul-22 23:32N 35°36' E 140°07'0 0.0
2014-Jul-22 22:33N 35°36' E 140°07'0 0.0
2014-Jul-22 21:33N 35°36' E 140°07'0 0.0
2014-Jul-22 20:33N 35°36' E 140°07'0 0.0
2014-Jul-22 19:33N 35°36' E 140°07'0 0.0
2014-Jul-22 18:33N 35°36' E 140°07'0 0.0
2014-Jul-22 17:34N 35°36' E 140°07'0 0.0
2014-Jul-22 16:33N 35°36' E 140°07'0 0.0
2014-Jul-22 15:33N 35°36' E 140°07'0 0.0
2014-Jul-22 14:33N 35°36' E 140°07'0 0.0
2014-Jul-22 13:33N 35°36' E 140°07'0 0.0
2014-Jul-22 12:34N 35°36' E 140°07'0 0.0
2014-Jul-22 11:33N 35°36' E 140°07'0 0.0
2014-Jul-22 10:33N 35°36' E 140°07'0 0.0
2014-Jul-22 09:33N 35°36' E 140°07'0 0.0
2014-Jul-22 08:33N 35°36' E 140°07'0 0.0
2014-Jul-22 07:33N 35°36' E 140°07'1 0.9
2014-Jul-22 06:33N 35°35' E 140°06'2 1.8
2014-Jul-22 05:33N 35°35' E 140°04'7 7.3
2014-Jul-22 04:34N 35°32' E 139°56'7 7.2
2014-Jul-22 03:33N 35°35' E 140°04'2 2.2
2014-Jul-22 02:33N 35°36' E 140°07'0 0.0
2014-Jul-22 01:33N 35°36' E 140°07'0 0.0
2014-Jul-22 00:33N 35°36' E 140°07'0 0.0
2014-Jul-21 23:33N 35°36' E 140°07'1 0.9
2014-Jul-21 22:34N 35°36' E 140°06'5 4.6
2014-Jul-21 21:33N 35°34' E 140°01'1 0.8
2014-Jul-21 20:33N 35°33' E 140°00'313.1
2014-Jul-21 20:18N 35°35' E 140°03'3 4.0
2014-Jul-21 19:33N 35°36' E 140°07'0 0.0
2014-Jul-21 18:34N 35°36' E 140°07'0 0.0
2014-Jul-21 17:34N 35°36' E 140°07'0 0.0
2014-Jul-21 16:33N 35°36' E 140°07'0 0.0
2014-Jul-21 15:33N 35°36' E 140°07'0 0.0
2014-Jul-21 14:33N 35°36' E 140°07'0 0.0
2014-Jul-21 13:33N 35°36' E 140°07'0 0.0
2014-Jul-21 12:33N 35°36' E 140°07'0 0.0
2014-Jul-21 11:34N 35°36' E 140°07'0 0.0
2014-Jul-21 10:33N 35°36' E 140°07'0 0.0
2014-Jul-21 09:33N 35°36' E 140°07'0 0.0
2014-Jul-21 08:33N 35°36' E 140°07'0 0.0
2014-Jul-21 07:33N 35°36' E 140°07'0 0.0
2014-Jul-21 06:33N 35°36' E 140°07'0 0.0
2014-Jul-21 05:33N 35°36' E 140°07'0 0.0
2014-Jul-21 04:33N 35°36' E 140°07'0 0.0
2014-Jul-21 03:34N 35°36' E 140°07'0 0.0
2014-Jul-21 02:33N 35°36' E 140°07'0 0.0
2014-Jul-21 01:33N 35°36' E 140°07'0 0.0
2014-Jul-21 00:33N 35°36' E 140°07'0 0.0
2014-Jul-20 23:33N 35°36' E 140°07'0 0.0
2014-Jul-20 22:33N 35°36' E 140°07'0 0.0
2014-Jul-20 21:33N 35°36' E 140°07'0 0.0
2014-Jul-20 20:33N 35°36' E 140°07'0 0.0
2014-Jul-20 19:33N 35°36' E 140°07'0 0.0
2014-Jul-20 18:33N 35°36' E 140°07'0 0.0
2014-Jul-20 17:33N 35°36' E 140°07'0 0.0
2014-Jul-20 16:33N 35°36' E 140°07'0 0.0
2014-Jul-20 15:33N 35°36' E 140°07'0 0.0
2014-Jul-20 14:33N 35°36' E 140°07'0 0.0
2014-Jul-20 13:33N 35°36' E 140°07'0 0.0
2014-Jul-20 12:33N 35°36' E 140°07'0 0.0
2014-Jul-20 11:33N 35°36' E 140°07'0 0.0
2014-Jul-20 10:33N 35°36' E 140°07'0 0.0
2014-Jul-20 09:33N 35°36' E 140°07'0 0.0
2014-Jul-20 08:34N 35°36' E 140°07'0 0.0
2014-Jul-20 07:33N 35°36' E 140°07'0 0.0
2014-Jul-20 06:34N 35°36' E 140°07'0 0.0
2014-Jul-20 05:33N 35°36' E 140°07'0 0.0
2014-Jul-20 04:33N 35°36' E 140°07'0 0.0
2014-Jul-20 03:33N 35°36' E 140°07'3 3.2
2014-Jul-20 02:33N 35°34' E 140°04'7 7.3
2014-Jul-20 01:33N 35°28' E 139°58'1 0.7
2014-Jul-20 00:33N 35°29' E 139°58'2 2.2
2014-Jul-19 23:33N 35°29' E 139°55'1010.3
2014-Jul-19 22:33N 35°35' E 140°05'1 1.5
2014-Jul-19 21:33N 35°36' E 140°07'0 0.0
2014-Jul-19 20:33N 35°36' E 140°07'0 0.0
2014-Jul-19 19:33N 35°36' E 140°07'0 0.0
2014-Jul-19 18:34N 35°36' E 140°07'0 0.0
2014-Jul-19 17:33N 35°36' E 140°07'0 0.0
2014-Jul-19 16:33N 35°36' E 140°07'0 0.0
2014-Jul-19 15:34N 35°36' E 140°07'0 0.0
2014-Jul-19 14:33N 35°36' E 140°07'0 0.0
2014-Jul-19 13:33N 35°36' E 140°07'0 0.0
2014-Jul-19 12:33N 35°36' E 140°07'0 0.0
2014-Jul-19 11:33N 35°36' E 140°07'0 0.0
2014-Jul-19 10:33N 35°36' E 140°07'0 0.0
2014-Jul-19 09:33N 35°36' E 140°07'0 0.0
2014-Jul-19 08:33N 35°36' E 140°07'0 0.0
2014-Jul-19 07:33N 35°36' E 140°07'1 1.0
2014-Jul-19 06:33N 35°35' E 140°07'1 1.0
2014-Jul-19 05:33N 35°36' E 140°07'0 0.0
2014-Jul-19 04:33N 35°36' E 140°07'0 0.0
2014-Jul-19 03:33N 35°36' E 140°07'0 0.0
2014-Jul-19 02:33N 35°36' E 140°07'0 0.0
2014-Jul-19 01:33N 35°36' E 140°07'1 1.2
2014-Jul-19 00:33N 35°35' E 140°05'9 8.9
2014-Jul-18 23:33N 35°29' E 139°58'3 3.1
2014-Jul-18 22:33N 35°31' E 140°01'7 6.8
2014-Jul-18 21:34N 35°36' E 140°07'0 0.0
2014-Jul-18 20:33N 35°36' E 140°07'0 0.0
2014-Jul-18 19:34N 35°36' E 140°07'0 0.0
2014-Jul-18 18:33N 35°36' E 140°07'0 0.0
2014-Jul-18 17:33N 35°36' E 140°07'0 0.0
2014-Jul-18 16:33N 35°36' E 140°07'0 0.0
2014-Jul-18 15:33N 35°36' E 140°07'0 0.0
2014-Jul-18 14:33N 35°36' E 140°07'0 0.0
2014-Jul-18 13:33N 35°36' E 140°07'0 0.0
2014-Jul-18 12:33N 35°36' E 140°07'0 0.0
2014-Jul-18 11:34N 35°36' E 140°07'0 0.0
2014-Jul-18 10:34N 35°36' E 140°07'0 0.0
2014-Jul-18 09:33N 35°36' E 140°07'8 8.3
2014-Jul-18 08:34N 35°30' E 139°59'2 2.1
2014-Jul-18 07:33N 35°28' E 139°58'2 1.9
2014-Jul-18 06:33N 35°30' E 139°56'1 1.2
2014-Jul-18 05:33N 35°29' E 139°55'0 0.0
2014-Jul-18 04:33N 35°29' E 139°55'3 2.9
2014-Jul-18 03:33N 35°30' E 139°58'8 8.1
2014-Jul-18 02:33N 35°36' E 140°05'1 1.4
2014-Jul-18 01:33N 35°35' E 140°06'1 0.5
2014-Jul-18 00:34N 35°36' E 140°07'4 3.6
2014-Jul-17 23:33N 35°32' E 140°05'2 1.6
2014-Jul-17 22:34N 35°33' E 140°04'5 5.3
2014-Jul-17 21:33N 35°31' E 139°58'9 8.7
2014-Jul-17 20:33N 35°36' E 140°07'0 0.0
2014-Jul-17 19:33N 35°36' E 140°07'0 0.0
2014-Jul-17 18:33N 35°36' E 140°07'0 0.0
2014-Jul-17 17:34N 35°36' E 140°07'0 0.0
2014-Jul-17 16:33N 35°36' E 140°07'0 0.0
2014-Jul-17 15:33N 35°36' E 140°07'0 0.0
2014-Jul-17 14:33N 35°36' E 140°07'0 0.0
2014-Jul-17 13:33N 35°36' E 140°07'0 0.0
2014-Jul-17 12:33N 35°36' E 140°07'0 0.0
2014-Jul-17 11:34N 35°36' E 140°07'0 0.0
2014-Jul-17 10:33N 35°36' E 140°07'7 7.3
2014-Jul-17 09:33N 35°30' E 140°02'1 0.7
2014-Jul-17 08:33N 35°30' E 140°01'0 0.0
2014-Jul-17 07:33N 35°30' E 140°01'1 0.6
2014-Jul-17 06:33N 35°30' E 140°02'1 0.8
2014-Jul-17 05:33N 35°31' E 140°01'0 0.0
2014-Jul-17 04:33N 35°31' E 140°01'0 0.0
2014-Jul-17 03:33N 35°31' E 140°01'0 0.0
2014-Jul-17 02:33N 35°31' E 140°01'6 6.0
2014-Jul-17 01:33N 35°36' E 140°05'1 1.1
2014-Jul-17 00:33N 35°35' E 140°04'4 4.4
2014-Jul-16 23:34N 35°31' E 140°02'1 1.2
2014-Jul-16 22:33N 35°31' E 140°01'3 3.2
2014-Jul-16 21:33N 35°34' E 140°03'3 3.2
2014-Jul-16 20:33N 35°35' E 140°06'1 0.6
2014-Jul-16 19:34N 35°36' E 140°07'0 0.0
2014-Jul-16 18:33N 35°36' E 140°07'0 0.0
2014-Jul-16 17:33N 35°36' E 140°07'0 0.0
2014-Jul-16 16:33N 35°36' E 140°07'0 0.0
2014-Jul-16 15:33N 35°36' E 140°07'0 0.0
2014-Jul-16 14:33N 35°36' E 140°07'0 0.0
2014-Jul-16 13:33N 35°36' E 140°07'0 0.0
2014-Jul-16 12:33N 35°36' E 140°07'0 0.0
2014-Jul-16 11:33N 35°36' E 140°07'0 0.0
2014-Jul-16 10:33N 35°36' E 140°07'3 3.1
2014-Jul-16 09:33N 35°35' E 140°03'7 7.1
2014-Jul-16 08:33N 35°31' E 139°56'0 0.0
2014-Jul-16 07:33N 35°31' E 139°56'2 1.7
2014-Jul-16 06:33N 35°30' E 139°54'6 6.1
2014-Jul-16 05:33N 35°33' E 140°01'6 5.8
2014-Jul-16 04:33N 35°36' E 140°07'0 0.0
2014-Jul-16 03:33N 35°36' E 140°07'0 0.0
2014-Jul-16 02:33N 35°36' E 140°07'0 0.0
2014-Jul-16 01:34N 35°36' E 140°07'0 0.0
2014-Jul-16 00:33N 35°36' E 140°07'0 0.3
2014-Jul-15 23:33N 35°35' E 140°07'2 1.8
2014-Jul-15 22:33N 35°35' E 140°05'0 0.3
2014-Jul-15 21:34N 35°35' E 140°04'1 1.0
2014-Jul-15 20:33N 35°36' E 140°05'2 1.7
2014-Jul-15 19:33N 35°36' E 140°07'0 0.0
2014-Jul-15 18:33N 35°36' E 140°07'0 0.0
2014-Jul-15 17:33N 35°36' E 140°07'0 0.0
2014-Jul-15 16:33N 35°36' E 140°07'0 0.0
2014-Jul-15 15:33N 35°36' E 140°07'0 0.0
2014-Jul-15 14:33N 35°36' E 140°07'0 0.0
2014-Jul-15 13:33N 35°36' E 140°07'0 0.0
2014-Jul-15 12:32N 35°36' E 140°07'0 0.0
2014-Jul-15 11:33N 35°36' E 140°07'1010.1
2014-Jul-15 10:33N 35°29' E 139°58'1 0.7
2014-Jul-15 09:33N 35°28' E 139°58'1 0.6
2014-Jul-15 08:33N 35°29' E 139°59'2 2.2
2014-Jul-15 07:33N 35°30' E 140°01'0 0.3
2014-Jul-15 06:33N 35°30' E 140°01'1 1.0
2014-Jul-15 05:34N 35°31' E 140°01'0 0.0
2014-Jul-15 04:33N 35°31' E 140°01'0 0.0
2014-Jul-15 03:33N 35°31' E 140°01'0 0.0
2014-Jul-15 02:33N 35°31' E 140°01'1 0.9
2014-Jul-15 01:34N 35°30' E 140°01'1 0.8
2014-Jul-15 00:33N 35°29' E 140°00'1 1.1
2014-Jul-14 23:33N 35°28' E 139°60'10 9.6
2014-Jul-14 22:33N 35°36' E 140°07'0 0.1
2014-Jul-14 21:34N 35°36' E 140°07'0 0.0
2014-Jul-14 20:33N 35°36' E 140°07'0 0.0
2014-Jul-14 19:34N 35°36' E 140°07'0 0.0
2014-Jul-14 18:33N 35°36' E 140°07'0 0.0
2014-Jul-14 17:33N 35°36' E 140°07'0 0.0
2014-Jul-14 16:33N 35°36' E 140°07'0 0.0
2014-Jul-14 15:33N 35°36' E 140°07'0 0.0
2014-Jul-14 14:33N 35°36' E 140°07'  

Dump ship's entire track history